Current Conditions
Partly Cloudy
Conditions



Pressure
1020.62 (hPa) - 30.14 (inHG)
Visibility

9.9 (mimiles) - 16.0 (km)
   Temperature
68  °F
20°C
46  °F
Dewpoint
46  %
 Humidity
   Wind Speed
5  mph
4  kts
8  km/h
2.2  m/s
   Wind Direction
 190°
Due South
   Airport Data
KDTW
Location Detroit Metropolitan Wayne County Airport 20 mi (32.18 km)
Metar :KDTW 291653Z 19004KT 10SM FEW100 20/08 A3014 RMK AO2 SLP204 T02000083
Wed 29th September 12:53 pm
   Raw Metar Info
Raw METAR is the most common format in the world for the transmission of observational weather data. It is highly standardized through the International Civil Aviation Organization (ICAO), which allows it to be understood throughout most of the world.
   API Info
Data Provided by
https://www.checkwx.com/weather/KDTW
   © Info
CSS/SVG/PHP scripts were developed by weather34.com for use in the weather34 template © 2015-2021

Guide Info provided by Metar-Wikipedia